Emily Golding — WDI9033 — position and weather

sailwx.info

Track history (hours):
 
Tides and Currents Weather Stations Pressure Air Temp Water Temp Dewpoint Dewpoint Depression Visibility Wind Speed Wind Dir Waves Ship Positions

Emily Golding

Owner: GOLDING BARGE LINE, VICKSBURG, MS. More information available from US FCC via Universal Licensing System and Coast Guard Vessel Documentation Center.

Last reported at 2017-Nov-18 15:03 UTC. Time now 2017-Nov-22 13:13 UTC.
Position N 29°44' W 095°09'.

Length 31 m; draft 3 m.

Type: Towing. MMSI: 367744620.

Date/timePositionNaut miles runAvg speedWind from/ knotsBaromVisibWave heightAir tempDewpointWater temp
2017-Nov-18 15:03N 29°44' W 095°09'3 0.1
2017-Nov-17 01:48N 29°45' W 095°12'3 6.5
2017-Nov-17 01:21N 29°44' W 095°08'  
2017-Nov-13 01:12N 29°45' W 095°05'2 7.6
2017-Nov-13 00:53N 29°44' W 095°08'3 7.4
2017-Nov-13 00:27N 29°45' W 095°11'1 0.6
2017-Nov-12 22:56N 29°44' W 095°12'0 0.0
2017-Nov-12 22:02N 29°44' W 095°12'0 0.0
2017-Nov-12 21:56N 29°44' W 095°12'0 0.0
2017-Nov-12 21:29N 29°44' W 095°12'0 0.0
2017-Nov-12 20:14N 29°44' W 095°12'0 0.0
2017-Nov-12 19:56N 29°44' W 095°12'0 0.0
2017-Nov-12 19:14N 29°44' W 095°12'0 0.0
2017-Nov-12 18:38N 29°44' W 095°12'0 0.0
2017-Nov-12 10:20N 29°44' W 095°12'0 0.0
2017-Nov-12 09:51N 29°44' W 095°12'2 5.2
2017-Nov-12 09:30N 29°45' W 095°10'5 1.7
2017-Nov-12 06:51N 29°46' W 095°05'3 8.0
2017-Nov-12 06:30N 29°44' W 095°08'4 7.2
2017-Nov-12 05:59N 29°44' W 095°12'0 0.2
2017-Nov-12 03:56N 29°44' W 095°12'0 0.0
2017-Nov-11 16:58N 29°44' W 095°12'1 1.6
2017-Nov-11 16:21N 29°43' W 095°13'1 1.1
2017-Nov-11 15:28N 29°44' W 095°12'0 0.1
2017-Nov-11 15:00N 29°44' W 095°12'3 6.0
2017-Nov-11 14:30N 29°44' W 095°09'2 0.3
2017-Nov-11 07:42N 29°44' W 095°07'2 8.5
2017-Nov-11 07:31N 29°44' W 095°09'1 0.0
2017-Nov-09 22:32N 29°44' W 095°10'1 0.3
2017-Nov-09 17:54N 29°44' W 095°08'3 0.4
2017-Nov-09 09:50N 29°46' W 095°05'2 5.1
2017-Nov-09 09:27N 29°44' W 095°07'2 4.8
2017-Nov-09 09:00N 29°44' W 095°09'2 4.7
2017-Nov-09 08:30N 29°44' W 095°12'0 0.1
2017-Nov-09 05:23N 29°45' W 095°12'0 0.0
2017-Nov-09 04:41N 29°45' W 095°12'0 0.0
2017-Nov-09 04:28N 29°45' W 095°12'0 0.0
2017-Nov-09 03:59N 29°45' W 095°12'0 0.0
2017-Nov-09 00:44N 29°45' W 095°12'0 0.0
2017-Nov-08 15:25N 29°45' W 095°12'  
Track history (hours):
 
Tides and Currents Weather Stations Pressure Air Temp Water Temp Dewpoint Dewpoint Depression Visibility Wind Speed Wind Dir Waves Ship Positions

Emily Golding

Owner: GOLDING BARGE LINE, VICKSBURG, MS. More information available from US FCC via Universal Licensing System and Coast Guard Vessel Documentation Center.

Last reported at 2017-Nov-18 15:03 UTC. Time now 2017-Nov-22 13:13 UTC.
Position N 29°44' W 095°09'.

Length 31 m; draft 3 m.

Type: Towing. MMSI: 367744620.

Date/timePositionNaut miles runAvg speedWind from/ knotsBaromVisibWave heightAir tempDewpointWater temp
2017-Nov-18 15:03N 29°44' W 095°09'3 0.1
2017-Nov-17 01:48N 29°45' W 095°12'3 6.5
2017-Nov-17 01:21N 29°44' W 095°08'  
2017-Nov-13 01:12N 29°45' W 095°05'2 7.6
2017-Nov-13 00:53N 29°44' W 095°08'3 7.4
2017-Nov-13 00:27N 29°45' W 095°11'1 0.6
2017-Nov-12 22:56N 29°44' W 095°12'0 0.0
2017-Nov-12 22:02N 29°44' W 095°12'0 0.0
2017-Nov-12 21:56N 29°44' W 095°12'0 0.0
2017-Nov-12 21:29N 29°44' W 095°12'0 0.0
2017-Nov-12 20:14N 29°44' W 095°12'0 0.0
2017-Nov-12 19:56N 29°44' W 095°12'0 0.0
2017-Nov-12 19:14N 29°44' W 095°12'0 0.0
2017-Nov-12 18:38N 29°44' W 095°12'0 0.0
2017-Nov-12 10:20N 29°44' W 095°12'0 0.0
2017-Nov-12 09:51N 29°44' W 095°12'2 5.2
2017-Nov-12 09:30N 29°45' W 095°10'5 1.7
2017-Nov-12 06:51N 29°46' W 095°05'3 8.0
2017-Nov-12 06:30N 29°44' W 095°08'4 7.2
2017-Nov-12 05:59N 29°44' W 095°12'0 0.2
2017-Nov-12 03:56N 29°44' W 095°12'0 0.0
2017-Nov-11 16:58N 29°44' W 095°12'1 1.6
2017-Nov-11 16:21N 29°43' W 095°13'1 1.1
2017-Nov-11 15:28N 29°44' W 095°12'0 0.1
2017-Nov-11 15:00N 29°44' W 095°12'3 6.0
2017-Nov-11 14:30N 29°44' W 095°09'2 0.3
2017-Nov-11 07:42N 29°44' W 095°07'2 8.5
2017-Nov-11 07:31N 29°44' W 095°09'1 0.0
2017-Nov-09 22:32N 29°44' W 095°10'1 0.3
2017-Nov-09 17:54N 29°44' W 095°08'3 0.4
2017-Nov-09 09:50N 29°46' W 095°05'2 5.1
2017-Nov-09 09:27N 29°44' W 095°07'2 4.8
2017-Nov-09 09:00N 29°44' W 095°09'2 4.7
2017-Nov-09 08:30N 29°44' W 095°12'0 0.1
2017-Nov-09 05:23N 29°45' W 095°12'0 0.0
2017-Nov-09 04:41N 29°45' W 095°12'0 0.0
2017-Nov-09 04:28N 29°45' W 095°12'0 0.0
2017-Nov-09 03:59N 29°45' W 095°12'0 0.0
2017-Nov-09 00:44N 29°45' W 095°12'0 0.0
2017-Nov-08 15:25N 29°45' W 095°12'  

Dump ship's entire track history